sensor_id;sensor_type;location;lat;lon;timestamp;temperature;humidity
1716;DHT22;855;48.824;9.220;2023-08-17T00:01:51;22.90;94.40
1716;DHT22;855;48.824;9.220;2023-08-17T00:04:19;22.70;95.10
1716;DHT22;855;48.824;9.220;2023-08-17T00:06:46;22.70;95.10
1716;DHT22;855;48.824;9.220;2023-08-17T00:09:13;22.70;95.50
1716;DHT22;855;48.824;9.220;2023-08-17T00:11:40;22.70;95.40
1716;DHT22;855;48.824;9.220;2023-08-17T00:14:07;22.80;95.50
1716;DHT22;855;48.824;9.220;2023-08-17T00:16:34;22.90;95.40
1716;DHT22;855;48.824;9.220;2023-08-17T00:19:00;22.90;94.90
1716;DHT22;855;48.824;9.220;2023-08-17T00:21:29;23.00;94.40
1716;DHT22;855;48.824;9.220;2023-08-17T00:23:55;23.00;94.50
1716;DHT22;855;48.824;9.220;2023-08-17T00:26:22;22.90;94.80
1716;DHT22;855;48.824;9.220;2023-08-17T00:28:50;23.00;94.90
1716;DHT22;855;48.824;9.220;2023-08-17T00:31:17;23.10;94.90
1716;DHT22;855;48.824;9.220;2023-08-17T00:33:43;23.00;94.60
1716;DHT22;855;48.824;9.220;2023-08-17T00:36:12;22.80;95.10
1716;DHT22;855;48.824;9.220;2023-08-17T00:38:40;22.60;95.60
1716;DHT22;855;48.824;9.220;2023-08-17T00:41:07;22.60;95.90
1716;DHT22;855;48.824;9.220;2023-08-17T00:43:34;22.70;96.00
1716;DHT22;855;48.824;9.220;2023-08-17T00:46:01;22.70;96.00
1716;DHT22;855;48.824;9.220;2023-08-17T00:48:29;22.80;95.70
1716;DHT22;855;48.824;9.220;2023-08-17T00:50:58;22.90;95.40
1716;DHT22;855;48.824;9.220;2023-08-17T00:53:26;22.90;95.40
1716;DHT22;855;48.824;9.220;2023-08-17T00:55:55;23.00;95.40
1716;DHT22;855;48.824;9.220;2023-08-17T00:58:23;23.10;95.00
1716;DHT22;855;48.824;9.220;2023-08-17T01:00:50;23.10;95.10
1716;DHT22;855;48.824;9.220;2023-08-17T01:03:18;23.20;95.00
1716;DHT22;855;48.824;9.220;2023-08-17T01:05:45;23.10;95.00
1716;DHT22;855;48.824;9.220;2023-08-17T01:08:12;22.90;95.50
1716;DHT22;855;48.824;9.220;2023-08-17T01:10:44;23.00;95.40
1716;DHT22;855;48.824;9.220;2023-08-17T01:13:18;23.00;95.10
1716;DHT22;855;48.824;9.220;2023-08-17T01:15:51;23.10;95.10
1716;DHT22;855;48.824;9.220;2023-08-17T01:18:23;23.10;95.00
1716;DHT22;855;48.824;9.220;2023-08-17T01:20:50;23.00;94.90
1716;DHT22;855;48.824;9.220;2023-08-17T01:23:20;22.90;95.40
1716;DHT22;855;48.824;9.220;2023-08-17T01:25:48;22.70;95.90
1716;DHT22;855;48.824;9.220;2023-08-17T01:28:14;22.60;96.20
1716;DHT22;855;48.824;9.220;2023-08-17T01:30:47;22.70;96.20
1716;DHT22;855;48.824;9.220;2023-08-17T01:33:20;22.70;96.30
1716;DHT22;855;48.824;9.220;2023-08-17T01:35:56;22.70;96.40
1716;DHT22;855;48.824;9.220;2023-08-17T01:38:27;22.60;96.30
1716;DHT22;855;48.824;9.220;2023-08-17T01:40:57;22.60;96.40
1716;DHT22;855;48.824;9.220;2023-08-17T01:43:25;22.70;96.30
1716;DHT22;855;48.824;9.220;2023-08-17T01:45:52;22.80;96.00
1716;DHT22;855;48.824;9.220;2023-08-17T01:48:19;22.90;95.60
1716;DHT22;855;48.824;9.220;2023-08-17T01:50:46;22.90;95.60
1716;DHT22;855;48.824;9.220;2023-08-17T01:53:13;22.80;95.60
1716;DHT22;855;48.824;9.220;2023-08-17T01:55:41;22.90;95.60
1716;DHT22;855;48.824;9.220;2023-08-17T01:58:08;22.90;95.50
1716;DHT22;855;48.824;9.220;2023-08-17T02:03:02;23.00;95.10
1716;DHT22;855;48.824;9.220;2023-08-17T02:05:28;23.10;95.00
1716;DHT22;855;48.824;9.220;2023-08-17T02:07:55;23.00;94.70
1716;DHT22;855;48.824;9.220;2023-08-17T02:10:22;23.00;94.60
1716;DHT22;855;48.824;9.220;2023-08-17T02:12:50;23.00;94.70
1716;DHT22;855;48.824;9.220;2023-08-17T02:15:17;22.90;94.90
1716;DHT22;855;48.824;9.220;2023-08-17T02:17:44;22.90;94.90
1716;DHT22;855;48.824;9.220;2023-08-17T02:20:11;23.00;94.80
1716;DHT22;855;48.824;9.220;2023-08-17T02:22:38;22.90;94.80
1716;DHT22;855;48.824;9.220;2023-08-17T02:25:06;22.90;94.90
1716;DHT22;855;48.824;9.220;2023-08-17T02:27:33;22.90;94.70
1716;DHT22;855;48.824;9.220;2023-08-17T02:30:04;22.80;94.90
1716;DHT22;855;48.824;9.220;2023-08-17T02:32:31;22.70;95.20
1716;DHT22;855;48.824;9.220;2023-08-17T02:34:58;22.70;95.10
1716;DHT22;855;48.824;9.220;2023-08-17T02:37:25;22.70;95.20
1716;DHT22;855;48.824;9.220;2023-08-17T02:39:52;22.80;95.10
1716;DHT22;855;48.824;9.220;2023-08-17T02:42:18;22.90;95.00
1716;DHT22;855;48.824;9.220;2023-08-17T02:44:45;22.90;94.90
1716;DHT22;855;48.824;9.220;2023-08-17T02:47:13;22.90;94.70
1716;DHT22;855;48.824;9.220;2023-08-17T02:49:40;22.80;94.30
1716;DHT22;855;48.824;9.220;2023-08-17T02:52:07;22.60;95.00
1716;DHT22;855;48.824;9.220;2023-08-17T02:54:34;22.60;95.00
1716;DHT22;855;48.824;9.220;2023-08-17T02:57:01;22.40;95.30
1716;DHT22;855;48.824;9.220;2023-08-17T02:59:27;22.40;95.60
1716;DHT22;855;48.824;9.220;2023-08-17T03:04:24;22.50;95.60
1716;DHT22;855;48.824;9.220;2023-08-17T03:06:51;22.60;95.50
1716;DHT22;855;48.824;9.220;2023-08-17T03:09:17;22.70;95.40
1716;DHT22;855;48.824;9.220;2023-08-17T03:11:44;22.80;95.00
1716;DHT22;855;48.824;9.220;2023-08-17T03:14:11;22.90;94.70
1716;DHT22;855;48.824;9.220;2023-08-17T03:16:38;23.00;94.50
1716;DHT22;855;48.824;9.220;2023-08-17T03:19:06;23.00;94.40
1716;DHT22;855;48.824;9.220;2023-08-17T03:21:38;23.10;94.40
1716;DHT22;855;48.824;9.220;2023-08-17T03:24:06;23.10;94.20
1716;DHT22;855;48.824;9.220;2023-08-17T03:26:33;23.20;94.20
1716;DHT22;855;48.824;9.220;2023-08-17T03:29:00;23.30;93.90
1716;DHT22;855;48.824;9.220;2023-08-17T03:31:27;23.40;93.50
1716;DHT22;855;48.824;9.220;2023-08-17T03:33:54;23.40;93.20
1716;DHT22;855;48.824;9.220;2023-08-17T03:36:22;23.40;93.00
1716;DHT22;855;48.824;9.220;2023-08-17T03:38:50;23.40;92.80
1716;DHT22;855;48.824;9.220;2023-08-17T03:41:17;23.20;93.30
1716;DHT22;855;48.824;9.220;2023-08-17T03:43:43;23.00;93.80
1716;DHT22;855;48.824;9.220;2023-08-17T03:46:10;22.90;94.20
1716;DHT22;855;48.824;9.220;2023-08-17T03:48:37;22.90;94.40
1716;DHT22;855;48.824;9.220;2023-08-17T03:51:04;23.00;94.40
1716;DHT22;855;48.824;9.220;2023-08-17T03:53:30;23.00;94.40
1716;DHT22;855;48.824;9.220;2023-08-17T03:55:59;23.00;94.40
1716;DHT22;855;48.824;9.220;2023-08-17T03:58:25;23.10;94.30
1716;DHT22;855;48.824;9.220;2023-08-17T04:00:57;23.20;94.30
1716;DHT22;855;48.824;9.220;2023-08-17T04:03:24;23.10;94.20
1716;DHT22;855;48.824;9.220;2023-08-17T04:05:51;23.10;94.30
1716;DHT22;855;48.824;9.220;2023-08-17T04:08:18;23.10;94.30
1716;DHT22;855;48.824;9.220;2023-08-17T04:10:44;23.00;94.20
1716;DHT22;855;48.824;9.220;2023-08-17T04:13:13;22.90;94.50
1716;DHT22;855;48.824;9.220;2023-08-17T04:15:39;23.00;94.50
1716;DHT22;855;48.824;9.220;2023-08-17T04:18:06;23.00;94.40
1716;DHT22;855;48.824;9.220;2023-08-17T04:20:33;23.10;94.20
1716;DHT22;855;48.824;9.220;2023-08-17T04:23:00;23.10;94.10
1716;DHT22;855;48.824;9.220;2023-08-17T04:25:26;23.20;94.10
1716;DHT22;855;48.824;9.220;2023-08-17T04:27:53;23.20;94.10
1716;DHT22;855;48.824;9.220;2023-08-17T04:30:21;23.20;93.90
1716;DHT22;855;48.824;9.220;2023-08-17T04:32:48;23.20;93.90
1716;DHT22;855;48.824;9.220;2023-08-17T04:35:17;23.20;93.90
1716;DHT22;855;48.824;9.220;2023-08-17T04:37:44;23.20;93.90
1716;DHT22;855;48.824;9.220;2023-08-17T04:40:12;23.30;93.50
1716;DHT22;855;48.824;9.220;2023-08-17T04:42:39;23.30;93.50
1716;DHT22;855;48.824;9.220;2023-08-17T04:45:07;23.20;93.60
1716;DHT22;855;48.824;9.220;2023-08-17T04:47:35;23.30;93.50
1716;DHT22;855;48.824;9.220;2023-08-17T04:50:02;23.40;93.40
1716;DHT22;855;48.824;9.220;2023-08-17T04:52:29;23.40;93.50
1716;DHT22;855;48.824;9.220;2023-08-17T04:54:56;23.50;93.50
1716;DHT22;855;48.824;9.220;2023-08-17T04:57:23;23.50;93.30
1716;DHT22;855;48.824;9.220;2023-08-17T04:59:50;23.50;93.00
1716;DHT22;855;48.824;9.220;2023-08-17T05:02:17;23.50;93.00
1716;DHT22;855;48.824;9.220;2023-08-17T05:04:46;23.50;93.00
1716;DHT22;855;48.824;9.220;2023-08-17T05:07:13;23.50;92.90
1716;DHT22;855;48.824;9.220;2023-08-17T05:09:40;23.50;92.80
1716;DHT22;855;48.824;9.220;2023-08-17T05:12:08;23.50;92.60
1716;DHT22;855;48.824;9.220;2023-08-17T05:14:34;23.10;93.90
1716;DHT22;855;48.824;9.220;2023-08-17T05:17:01;23.10;94.10
1716;DHT22;855;48.824;9.220;2023-08-17T05:19:28;23.10;94.30
1716;DHT22;855;48.824;9.220;2023-08-17T05:21:57;22.90;94.20
1716;DHT22;855;48.824;9.220;2023-08-17T05:24:24;22.80;94.50
1716;DHT22;855;48.824;9.220;2023-08-17T05:26:51;22.60;94.60
1716;DHT22;855;48.824;9.220;2023-08-17T05:29:17;22.60;94.80
1716;DHT22;855;48.824;9.220;2023-08-17T05:31:44;22.70;95.00
1716;DHT22;855;48.824;9.220;2023-08-17T05:34:11;22.90;94.50
1716;DHT22;855;48.824;9.220;2023-08-17T05:36:38;23.00;94.10
1716;DHT22;855;48.824;9.220;2023-08-17T05:39:07;23.10;93.70
1716;DHT22;855;48.824;9.220;2023-08-17T05:41:34;23.10;93.50
1716;DHT22;855;48.824;9.220;2023-08-17T05:44:01;23.20;93.20
1716;DHT22;855;48.824;9.220;2023-08-17T05:46:28;23.30;93.00
1716;DHT22;855;48.824;9.220;2023-08-17T05:48:55;23.30;93.00
1716;DHT22;855;48.824;9.220;2023-08-17T05:51:22;23.40;92.40
1716;DHT22;855;48.824;9.220;2023-08-17T05:53:49;23.50;92.30
1716;DHT22;855;48.824;9.220;2023-08-17T05:56:17;23.50;91.70
1716;DHT22;855;48.824;9.220;2023-08-17T05:58:44;23.40;92.00
1716;DHT22;855;48.824;9.220;2023-08-17T06:01:12;23.50;92.20
1716;DHT22;855;48.824;9.220;2023-08-17T06:03:39;23.40;91.80
1716;DHT22;855;48.824;9.220;2023-08-17T06:06:06;23.50;92.10
1716;DHT22;855;48.824;9.220;2023-08-17T06:08:33;23.60;91.80
1716;DHT22;855;48.824;9.220;2023-08-17T06:11:00;23.60;91.60
1716;DHT22;855;48.824;9.220;2023-08-17T06:13:28;23.60;91.60
1716;DHT22;855;48.824;9.220;2023-08-17T06:15:56;23.60;91.60
1716;DHT22;855;48.824;9.220;2023-08-17T06:18:23;23.60;91.60
1716;DHT22;855;48.824;9.220;2023-08-17T06:20:49;23.60;91.40
1716;DHT22;855;48.824;9.220;2023-08-17T06:23:19;23.60;91.60
1716;DHT22;855;48.824;9.220;2023-08-17T06:25:46;23.70;91.40
1716;DHT22;855;48.824;9.220;2023-08-17T06:28:13;23.90;91.20
1716;DHT22;855;48.824;9.220;2023-08-17T06:30:41;24.00;90.80
1716;DHT22;855;48.824;9.220;2023-08-17T06:33:08;24.00;90.10
1716;DHT22;855;48.824;9.220;2023-08-17T06:35:34;24.10;90.10
1716;DHT22;855;48.824;9.220;2023-08-17T06:38:01;24.20;90.10
1716;DHT22;855;48.824;9.220;2023-08-17T06:40:28;24.20;89.50
1716;DHT22;855;48.824;9.220;2023-08-17T06:42:55;24.30;89.70
1716;DHT22;855;48.824;9.220;2023-08-17T06:45:21;24.40;88.90
1716;DHT22;855;48.824;9.220;2023-08-17T06:47:50;24.40;88.50
1716;DHT22;855;48.824;9.220;2023-08-17T06:50:16;24.20;88.20
1716;DHT22;855;48.824;9.220;2023-08-17T06:52:43;24.10;89.00
1716;DHT22;855;48.824;9.220;2023-08-17T06:55:10;24.10;89.10
1716;DHT22;855;48.824;9.220;2023-08-17T06:57:37;24.20;88.90
1716;DHT22;855;48.824;9.220;2023-08-17T07:00:05;24.10;89.10
1716;DHT22;855;48.824;9.220;2023-08-17T07:02:32;24.10;89.70
1716;DHT22;855;48.824;9.220;2023-08-17T07:05:01;24.30;89.30
1716;DHT22;855;48.824;9.220;2023-08-17T07:07:29;24.30;88.90
1716;DHT22;855;48.824;9.220;2023-08-17T07:09:57;24.20;89.00
1716;DHT22;855;48.824;9.220;2023-08-17T07:12:24;24.30;88.90
1716;DHT22;855;48.824;9.220;2023-08-17T07:14:50;24.40;88.50
1716;DHT22;855;48.824;9.220;2023-08-17T07:17:17;24.50;88.10
1716;DHT22;855;48.824;9.220;2023-08-17T07:19:44;24.50;87.40
1716;DHT22;855;48.824;9.220;2023-08-17T07:22:12;24.80;87.00
1716;DHT22;855;48.824;9.220;2023-08-17T07:24:39;25.00;86.40
1716;DHT22;855;48.824;9.220;2023-08-17T07:27:06;25.20;85.40
1716;DHT22;855;48.824;9.220;2023-08-17T07:29:33;25.20;84.40
1716;DHT22;855;48.824;9.220;2023-08-17T07:32:00;25.20;84.50
1716;DHT22;855;48.824;9.220;2023-08-17T07:34:27;25.10;84.50
1716;DHT22;855;48.824;9.220;2023-08-17T07:36:54;25.00;85.20
1716;DHT22;855;48.824;9.220;2023-08-17T07:39:22;25.00;85.80
1716;DHT22;855;48.824;9.220;2023-08-17T07:41:49;25.00;86.00
1716;DHT22;855;48.824;9.220;2023-08-17T07:44:16;25.10;85.00
1716;DHT22;855;48.824;9.220;2023-08-17T07:46:43;25.40;85.20
1716;DHT22;855;48.824;9.220;2023-08-17T07:49:10;25.70;83.70
1716;DHT22;855;48.824;9.220;2023-08-17T07:51:37;25.60;82.40
1716;DHT22;855;48.824;9.220;2023-08-17T07:54:04;25.50;83.20
1716;DHT22;855;48.824;9.220;2023-08-17T07:56:32;25.40;83.20
1716;DHT22;855;48.824;9.220;2023-08-17T07:59:01;25.50;83.40
1716;DHT22;855;48.824;9.220;2023-08-17T08:01:28;25.30;83.20
1716;DHT22;855;48.824;9.220;2023-08-17T08:03:55;25.30;83.40
1716;DHT22;855;48.824;9.220;2023-08-17T08:06:22;25.30;84.20
1716;DHT22;855;48.824;9.220;2023-08-17T08:08:49;25.20;83.70
1716;DHT22;855;48.824;9.220;2023-08-17T08:11:16;25.40;83.80
1716;DHT22;855;48.824;9.220;2023-08-17T08:13:44;25.80;83.70
1716;DHT22;855;48.824;9.220;2023-08-17T08:16:11;26.10;83.60
1716;DHT22;855;48.824;9.220;2023-08-17T08:18:38;26.10;81.10
1716;DHT22;855;48.824;9.220;2023-08-17T08:21:05;26.30;81.30
1716;DHT22;855;48.824;9.220;2023-08-17T08:23:31;26.30;80.40
1716;DHT22;855;48.824;9.220;2023-08-17T08:25:58;26.20;79.70
1716;DHT22;855;48.824;9.220;2023-08-17T08:28:25;26.00;80.00
1716;DHT22;855;48.824;9.220;2023-08-17T08:30:53;26.00;79.90
1716;DHT22;855;48.824;9.220;2023-08-17T08:33:20;25.90;81.20
1716;DHT22;855;48.824;9.220;2023-08-17T08:35:47;26.00;81.30
1716;DHT22;855;48.824;9.220;2023-08-17T08:38:14;26.30;80.10
1716;DHT22;855;48.824;9.220;2023-08-17T08:40:41;26.70;79.00
1716;DHT22;855;48.824;9.220;2023-08-17T08:43:08;27.00;78.70
1716;DHT22;855;48.824;9.220;2023-08-17T08:45:36;27.00;77.90
1716;DHT22;855;48.824;9.220;2023-08-17T08:48:06;27.10;77.90
1716;DHT22;855;48.824;9.220;2023-08-17T08:50:36;27.20;77.60
1716;DHT22;855;48.824;9.220;2023-08-17T08:53:03;27.20;77.40
1716;DHT22;855;48.824;9.220;2023-08-17T08:55:37;27.10;77.80
1716;DHT22;855;48.824;9.220;2023-08-17T08:58:05;27.10;77.90
1716;DHT22;855;48.824;9.220;2023-08-17T09:00:33;27.20;77.90
1716;DHT22;855;48.824;9.220;2023-08-17T09:03:02;27.40;77.10
1716;DHT22;855;48.824;9.220;2023-08-17T09:05:31;27.60;75.90
1716;DHT22;855;48.824;9.220;2023-08-17T09:08:00;27.80;76.60
1716;DHT22;855;48.824;9.220;2023-08-17T09:10:28;27.80;76.00
1716;DHT22;855;48.824;9.220;2023-08-17T09:12:55;27.70;75.80
1716;DHT22;855;48.824;9.220;2023-08-17T09:15:22;27.20;77.90
1716;DHT22;855;48.824;9.220;2023-08-17T09:17:49;27.20;78.30
1716;DHT22;855;48.824;9.220;2023-08-17T09:20:38;27.40;77.60
1716;DHT22;855;48.824;9.220;2023-08-17T09:23:10;27.30;77.10
1716;DHT22;855;48.824;9.220;2023-08-17T09:25:40;27.30;77.50
1716;DHT22;855;48.824;9.220;2023-08-17T09:28:08;27.40;77.20
1716;DHT22;855;48.824;9.220;2023-08-17T09:30:52;27.50;76.70
1716;DHT22;855;48.824;9.220;2023-08-17T09:33:20;27.70;77.00
1716;DHT22;855;48.824;9.220;2023-08-17T09:35:49;27.80;76.30
1716;DHT22;855;48.824;9.220;2023-08-17T09:38:16;27.80;75.60
1716;DHT22;855;48.824;9.220;2023-08-17T09:40:43;27.90;76.00
1716;DHT22;855;48.824;9.220;2023-08-17T09:43:10;28.10;75.80
1716;DHT22;855;48.824;9.220;2023-08-17T09:45:37;28.30;75.30
1716;DHT22;855;48.824;9.220;2023-08-17T09:48:05;28.30;73.50
1716;DHT22;855;48.824;9.220;2023-08-17T09:50:33;28.30;74.20
1716;DHT22;855;48.824;9.220;2023-08-17T09:53:01;28.30;74.50
1716;DHT22;855;48.824;9.220;2023-08-17T09:55:30;28.30;74.50
1716;DHT22;855;48.824;9.220;2023-08-17T09:57:57;28.20;74.20
1716;DHT22;855;48.824;9.220;2023-08-17T10:00:25;28.10;75.00
1716;DHT22;855;48.824;9.220;2023-08-17T10:02:53;28.30;75.10
1716;DHT22;855;48.824;9.220;2023-08-17T10:05:20;28.40;74.60
1716;DHT22;855;48.824;9.220;2023-08-17T10:07:51;28.50;73.70
1716;DHT22;855;48.824;9.220;2023-08-17T10:10:24;28.70;73.50
1716;DHT22;855;48.824;9.220;2023-08-17T10:12:58;28.90;73.00
1716;DHT22;855;48.824;9.220;2023-08-17T10:15:29;28.70;73.10
1716;DHT22;855;48.824;9.220;2023-08-17T10:18:02;28.80;73.90
1716;DHT22;855;48.824;9.220;2023-08-17T10:20:35;28.80;73.30
1716;DHT22;855;48.824;9.220;2023-08-17T10:23:10;28.90;73.90
1716;DHT22;855;48.824;9.220;2023-08-17T10:25:40;29.10;73.00
1716;DHT22;855;48.824;9.220;2023-08-17T10:28:09;29.10;73.00
1716;DHT22;855;48.824;9.220;2023-08-17T10:30:36;29.20;72.20
1716;DHT22;855;48.824;9.220;2023-08-17T10:33:05;29.40;72.20
1716;DHT22;855;48.824;9.220;2023-08-17T10:35:33;29.50;71.70
1716;DHT22;855;48.824;9.220;2023-08-17T10:38:02;29.60;71.40
1716;DHT22;855;48.824;9.220;2023-08-17T10:40:35;29.50;70.60
1716;DHT22;855;48.824;9.220;2023-08-17T10:43:03;29.60;70.40
1716;DHT22;855;48.824;9.220;2023-08-17T10:45:32;29.90;69.60
1716;DHT22;855;48.824;9.220;2023-08-17T10:50:59;30.20;69.60
1716;DHT22;855;48.824;9.220;2023-08-17T10:53:26;30.50;67.90
1716;DHT22;855;48.824;9.220;2023-08-17T10:55:58;30.70;67.10
1716;DHT22;855;48.824;9.220;2023-08-17T10:58:30;30.70;67.10
1716;DHT22;855;48.824;9.220;2023-08-17T11:00:59;30.70;66.70
1716;DHT22;855;48.824;9.220;2023-08-17T11:03:26;30.70;66.70
1716;DHT22;855;48.824;9.220;2023-08-17T11:05:54;30.80;66.40
1716;DHT22;855;48.824;9.220;2023-08-17T11:08:23;30.70;66.80
1716;DHT22;855;48.824;9.220;2023-08-17T11:10:58;30.80;66.30
1716;DHT22;855;48.824;9.220;2023-08-17T11:13:29;31.10;65.60
1716;DHT22;855;48.824;9.220;2023-08-17T11:15:57;30.80;65.70
1716;DHT22;855;48.824;9.220;2023-08-17T11:18:24;31.00;65.30
1716;DHT22;855;48.824;9.220;2023-08-17T11:20:52;31.10;66.40
1716;DHT22;855;48.824;9.220;2023-08-17T11:23:19;31.20;64.50
1716;DHT22;855;48.824;9.220;2023-08-17T11:25:47;30.90;64.50
1716;DHT22;855;48.824;9.220;2023-08-17T11:28:14;30.90;64.50
1716;DHT22;855;48.824;9.220;2023-08-17T11:30:43;30.90;64.00
1716;DHT22;855;48.824;9.220;2023-08-17T11:33:10;31.00;64.90
1716;DHT22;855;48.824;9.220;2023-08-17T11:35:37;31.20;63.60
1716;DHT22;855;48.824;9.220;2023-08-17T11:38:05;31.20;64.20
1716;DHT22;855;48.824;9.220;2023-08-17T11:40:32;31.20;64.30
1716;DHT22;855;48.824;9.220;2023-08-17T11:42:59;30.90;65.20
1716;DHT22;855;48.824;9.220;2023-08-17T11:45:26;31.10;64.40
1716;DHT22;855;48.824;9.220;2023-08-17T11:47:54;31.10;63.90
1716;DHT22;855;48.824;9.220;2023-08-17T11:50:21;31.10;64.00
1716;DHT22;855;48.824;9.220;2023-08-17T11:52:48;31.40;63.00
1716;DHT22;855;48.824;9.220;2023-08-17T11:55:17;31.40;64.40
1716;DHT22;855;48.824;9.220;2023-08-17T11:57:45;31.30;64.20
1716;DHT22;855;48.824;9.220;2023-08-17T12:00:17;31.20;64.80
1716;DHT22;855;48.824;9.220;2023-08-17T12:02:47;31.30;64.20
1716;DHT22;855;48.824;9.220;2023-08-17T12:05:19;31.00;64.70
1716;DHT22;855;48.824;9.220;2023-08-17T12:07:46;31.10;65.10
1716;DHT22;855;48.824;9.220;2023-08-17T12:10:13;31.00;65.30
1716;DHT22;855;48.824;9.220;2023-08-17T12:12:40;30.80;68.00
1716;DHT22;855;48.824;9.220;2023-08-17T12:15:07;30.70;68.60
1716;DHT22;855;48.824;9.220;2023-08-17T12:17:36;30.60;68.10
1716;DHT22;855;48.824;9.220;2023-08-17T12:20:08;30.50;68.60
1716;DHT22;855;48.824;9.220;2023-08-17T12:22:39;30.30;68.60
1716;DHT22;855;48.824;9.220;2023-08-17T12:25:08;30.20;68.90
1716;DHT22;855;48.824;9.220;2023-08-17T12:27:35;30.10;69.00
1716;DHT22;855;48.824;9.220;2023-08-17T12:30:02;30.20;69.70
1716;DHT22;855;48.824;9.220;2023-08-17T12:32:29;30.10;69.70
1716;DHT22;855;48.824;9.220;2023-08-17T12:34:56;30.00;70.20
1716;DHT22;855;48.824;9.220;2023-08-17T12:37:23;30.00;70.20
1716;DHT22;855;48.824;9.220;2023-08-17T12:39:51;29.80;71.30
1716;DHT22;855;48.824;9.220;2023-08-17T12:42:18;29.80;71.80
1716;DHT22;855;48.824;9.220;2023-08-17T12:44:44;29.80;71.70
1716;DHT22;855;48.824;9.220;2023-08-17T12:49:38;29.60;72.60
1716;DHT22;855;48.824;9.220;2023-08-17T12:52:05;29.60;72.20
1716;DHT22;855;48.824;9.220;2023-08-17T12:54:32;29.30;72.90
1716;DHT22;855;48.824;9.220;2023-08-17T12:57:00;29.40;73.00
1716;DHT22;855;48.824;9.220;2023-08-17T12:59:28;29.30;72.50
1716;DHT22;855;48.824;9.220;2023-08-17T13:01:55;29.20;72.50
1716;DHT22;855;48.824;9.220;2023-08-17T13:04:22;29.00;73.40
1716;DHT22;855;48.824;9.220;2023-08-17T13:09:16;28.70;73.70
1716;DHT22;855;48.824;9.220;2023-08-17T13:11:44;28.60;74.30
1716;DHT22;855;48.824;9.220;2023-08-17T13:14:13;28.60;74.10
1716;DHT22;855;48.824;9.220;2023-08-17T13:16:40;28.60;73.90
1716;DHT22;855;48.824;9.220;2023-08-17T13:19:07;28.30;78.60
1716;DHT22;855;48.824;9.220;2023-08-17T13:21:34;28.10;79.60
1716;DHT22;855;48.824;9.220;2023-08-17T13:24:00;28.10;79.60
1716;DHT22;855;48.824;9.220;2023-08-17T13:26:28;27.90;80.70
1716;DHT22;855;48.824;9.220;2023-08-17T13:28:55;27.80;81.20
1716;DHT22;855;48.824;9.220;2023-08-17T13:31:23;27.70;81.70
1716;DHT22;855;48.824;9.220;2023-08-17T13:33:50;27.60;81.60
1716;DHT22;855;48.824;9.220;2023-08-17T13:36:18;27.20;82.80
1716;DHT22;855;48.824;9.220;2023-08-17T13:38:45;26.90;83.70
1716;DHT22;855;48.824;9.220;2023-08-17T13:41:12;26.70;84.20
1716;DHT22;855;48.824;9.220;2023-08-17T13:43:39;26.20;86.60
1716;DHT22;855;48.824;9.220;2023-08-17T13:46:06;26.20;86.60
1716;DHT22;855;48.824;9.220;2023-08-17T13:48:35;26.00;89.10
1716;DHT22;855;48.824;9.220;2023-08-17T13:51:04;25.90;89.80
1716;DHT22;855;48.824;9.220;2023-08-17T13:53:30;25.80;89.70
1716;DHT22;855;48.824;9.220;2023-08-17T13:55:57;25.50;90.60
1716;DHT22;855;48.824;9.220;2023-08-17T14:00:51;25.40;91.40
1716;DHT22;855;48.824;9.220;2023-08-17T14:03:19;25.40;91.20
1716;DHT22;855;48.824;9.220;2023-08-17T14:05:47;25.30;91.50
1716;DHT22;855;48.824;9.220;2023-08-17T14:08:14;25.30;91.40
1716;DHT22;855;48.824;9.220;2023-08-17T14:10:41;25.50;91.40
1716;DHT22;855;48.824;9.220;2023-08-17T14:13:07;25.50;91.40
1716;DHT22;855;48.824;9.220;2023-08-17T14:15:34;25.60;91.30
1716;DHT22;855;48.824;9.220;2023-08-17T14:18:01;25.90;90.80
1716;DHT22;855;48.824;9.220;2023-08-17T14:20:29;25.80;88.60
1716;DHT22;855;48.824;9.220;2023-08-17T14:22:57;25.70;88.20
1716;DHT22;855;48.824;9.220;2023-08-17T14:25:24;25.60;89.90
1716;DHT22;855;48.824;9.220;2023-08-17T14:27:51;25.60;89.90
1716;DHT22;855;48.824;9.220;2023-08-17T14:30:18;25.70;90.10
1716;DHT22;855;48.824;9.220;2023-08-17T14:32:45;25.90;89.10
1716;DHT22;855;48.824;9.220;2023-08-17T14:35:11;26.00;87.80
1716;DHT22;855;48.824;9.220;2023-08-17T14:37:38;26.00;87.80
1716;DHT22;855;48.824;9.220;2023-08-17T14:40:08;26.20;86.40
1716;DHT22;855;48.824;9.220;2023-08-17T14:42:36;26.00;86.70
1716;DHT22;855;48.824;9.220;2023-08-17T14:45:04;26.10;86.70
1716;DHT22;855;48.824;9.220;2023-08-17T14:47:30;26.30;86.90
1716;DHT22;855;48.824;9.220;2023-08-17T14:49:57;26.30;85.70
1716;DHT22;855;48.824;9.220;2023-08-17T14:52:24;26.30;85.60
1716;DHT22;855;48.824;9.220;2023-08-17T14:54:51;26.30;85.00
1716;DHT22;855;48.824;9.220;2023-08-17T14:57:19;26.40;84.60
1716;DHT22;855;48.824;9.220;2023-08-17T14:59:46;26.50;84.80
1716;DHT22;855;48.824;9.220;2023-08-17T15:02:13;26.50;84.80
1716;DHT22;855;48.824;9.220;2023-08-17T15:04:42;26.50;84.80
1716;DHT22;855;48.824;9.220;2023-08-17T15:07:09;26.50;84.90
1716;DHT22;855;48.824;9.220;2023-08-17T15:09:36;26.60;84.50
1716;DHT22;855;48.824;9.220;2023-08-17T15:12:03;26.70;84.50
1716;DHT22;855;48.824;9.220;2023-08-17T15:14:32;26.70;84.00
1716;DHT22;855;48.824;9.220;2023-08-17T15:16:59;26.80;83.70
1716;DHT22;855;48.824;9.220;2023-08-17T15:19:26;26.90;83.30
1716;DHT22;855;48.824;9.220;2023-08-17T15:21:53;27.00;83.20
1716;DHT22;855;48.824;9.220;2023-08-17T15:24:19;27.30;83.20
1716;DHT22;855;48.824;9.220;2023-08-17T15:26:46;27.30;83.00
1716;DHT22;855;48.824;9.220;2023-08-17T15:29:13;27.30;82.00
1716;DHT22;855;48.824;9.220;2023-08-17T15:31:41;27.30;82.10
1716;DHT22;855;48.824;9.220;2023-08-17T15:34:08;27.30;82.40
1716;DHT22;855;48.824;9.220;2023-08-17T15:36:35;27.50;81.60
1716;DHT22;855;48.824;9.220;2023-08-17T15:39:02;27.50;81.50
1716;DHT22;855;48.824;9.220;2023-08-17T15:41:29;27.50;81.60
1716;DHT22;855;48.824;9.220;2023-08-17T15:43:56;27.50;81.50
1716;DHT22;855;48.824;9.220;2023-08-17T15:46:22;27.60;82.80
1716;DHT22;855;48.824;9.220;2023-08-17T15:48:51;27.60;82.50
1716;DHT22;855;48.824;9.220;2023-08-17T15:51:17;27.70;82.70
1716;DHT22;855;48.824;9.220;2023-08-17T15:53:44;27.80;81.30
1716;DHT22;855;48.824;9.220;2023-08-17T15:56:11;27.90;80.90
1716;DHT22;855;48.824;9.220;2023-08-17T15:58:39;27.90;82.00
1716;DHT22;855;48.824;9.220;2023-08-17T16:01:06;28.00;81.10
1716;DHT22;855;48.824;9.220;2023-08-17T16:03:33;28.00;80.70
1716;DHT22;855;48.824;9.220;2023-08-17T16:06:02;28.10;79.60
1716;DHT22;855;48.824;9.220;2023-08-17T16:08:29;28.20;79.60
1716;DHT22;855;48.824;9.220;2023-08-17T16:10:55;28.10;78.70
1716;DHT22;855;48.824;9.220;2023-08-17T16:13:22;27.90;79.10
1716;DHT22;855;48.824;9.220;2023-08-17T16:15:49;27.80;79.90
1716;DHT22;855;48.824;9.220;2023-08-17T16:18:16;27.80;80.40
1716;DHT22;855;48.824;9.220;2023-08-17T16:20:43;27.80;80.80
1716;DHT22;855;48.824;9.220;2023-08-17T16:23:11;27.80;80.50
1716;DHT22;855;48.824;9.220;2023-08-17T16:25:38;27.70;81.10
1716;DHT22;855;48.824;9.220;2023-08-17T16:28:05;27.60;81.50
1716;DHT22;855;48.824;9.220;2023-08-17T16:30:32;27.60;81.50
1716;DHT22;855;48.824;9.220;2023-08-17T16:33:01;27.50;82.00
1716;DHT22;855;48.824;9.220;2023-08-17T16:35:27;27.50;82.70